createdAt,value
2022-08-01T00:00:24.606Z,1001.634033
2022-08-01T00:01:28.869Z,1001.612793
2022-08-01T00:02:32.794Z,1001.634521
2022-08-01T00:03:28.245Z,1001.591431
2022-08-01T00:04:29.299Z,1001.550781
2022-08-01T00:06:22.376Z,1001.635925
2022-08-01T00:07:18.922Z,1001.601074
2022-08-01T00:08:22.051Z,1001.590149
2022-08-01T00:09:23.809Z,1001.659851
2022-08-01T00:09:24.466Z,1001.659851
2022-08-01T00:10:18.240Z,1001.63031
2022-08-01T00:11:13.585Z,1001.520691
2022-08-01T00:12:13.931Z,1001.64093
2022-08-01T00:13:12.061Z,1001.576416
2022-08-01T00:14:10.623Z,1001.672363
2022-08-01T00:15:04.907Z,1001.672119
2022-08-01T00:16:16.743Z,1001.623779
2022-08-01T00:17:17.386Z,1001.677002
2022-08-01T00:18:16.291Z,1001.588745
2022-08-01T00:19:11.542Z,1001.649902
2022-08-01T00:21:15.202Z,1001.638916
2022-08-01T00:22:10.608Z,1001.695313
2022-08-01T00:23:13.048Z,1001.703125
2022-08-01T00:24:06.046Z,1001.670959
2022-08-01T00:24:14.334Z,1001.670959
2022-08-01T00:25:04.053Z,1001.660339
2022-08-01T00:26:59.243Z,1001.607056
2022-08-01T00:28:04.119Z,1001.690063
2022-08-01T00:28:57.308Z,1001.665771
2022-08-01T00:30:10.686Z,1001.622803
2022-08-01T00:30:10.687Z,1001.622803
2022-08-01T00:30:11.394Z,1001.622803
2022-08-01T00:32:28.507Z,1001.698914
2022-08-01T00:33:10.093Z,1001.65625
2022-08-01T00:34:14.008Z,1001.664551
2022-08-01T00:35:15.752Z,1001.717834
2022-08-01T00:37:19.709Z,1001.658447
2022-08-01T00:38:22.640Z,1001.666077
2022-08-01T00:39:23.679Z,1001.655151
2022-08-01T00:41:25.558Z,1001.646851
2022-08-01T00:42:22.156Z,1001.673584
2022-08-01T00:43:31.510Z,1001.657471
2022-08-01T00:44:31.172Z,1001.694946
2022-08-01T00:46:37.444Z,1001.640991
2022-08-01T00:47:34.218Z,1001.643433
2022-08-01T00:48:44.147Z,1001.664673
2022-08-01T00:49:48.217Z,1001.667419
2022-08-01T00:51:53.161Z,1001.624512
2022-08-01T00:52:51.774Z,1001.616333
2022-08-01T00:53:54.081Z,1001.61908
2022-08-01T00:54:50.549Z,1001.61908
2022-08-01T00:55:52.615Z,1001.600159
2022-08-01T00:56:53.249Z,1001.584045
2022-08-01T00:58:01.802Z,1001.559998
2022-08-01T00:58:02.622Z,1001.559998
2022-08-01T00:58:04.686Z,1001.559998
2022-08-01T00:58:52.745Z,1001.645752
2022-08-01T00:59:49.667Z,1001.587158
2022-08-01T01:00:54.883Z,1001.536377
2022-08-01T01:01:50.072Z,1001.528442
2022-08-01T01:02:56.459Z,1001.539063
2022-08-01T01:03:59.104Z,1001.584351
2022-08-01T01:04:57.264Z,1001.611145
2022-08-01T01:05:56.088Z,1001.549683
2022-08-01T01:06:59.581Z,1001.594971
2022-08-01T01:07:55.607Z,1001.571045
2022-08-01T01:09:43.620Z,1001.57373
2022-08-01T01:11:22.520Z,1001.568909
2022-08-01T01:12:23.886Z,1001.641418
2022-08-01T01:13:22.421Z,1001.582336
2022-08-01T01:14:22.364Z,1001.659546
2022-08-01T01:16:20.286Z,1001.600525
2022-08-01T01:17:17.498Z,1001.541504
2022-08-01T01:17:41.992Z,1001.541504
2022-08-01T01:17:50.286Z,1001.541504
2022-08-01T01:18:19.735Z,1001.557678
2022-08-01T01:19:17.729Z,1001.606079
2022-08-01T01:20:16.553Z,1001.630371
2022-08-01T01:22:19.139Z,1001.528442
2022-08-01T01:23:17.129Z,1001.547058
2022-08-01T01:24:18.137Z,1001.560303
2022-08-01T01:25:17.395Z,1001.528137
2022-08-01T01:26:19.649Z,1001.512024
2022-08-01T01:27:12.077Z,1001.538757
2022-08-01T01:28:15.020Z,1001.463623
2022-08-01T01:29:09.718Z,1001.455322
2022-08-01T01:30:13.896Z,1001.533264
2022-08-01T01:32:06.826Z,1001.525024
2022-08-01T01:33:07.134Z,1001.519531
2022-08-01T01:34:03.760Z,1001.599854
2022-08-01T01:35:07.618Z,1001.610474
2022-08-01T01:35:59.708Z,1001.66156
2022-08-01T01:37:01.193Z,1001.602478
2022-08-01T01:37:55.147Z,1001.67218
2022-08-01T01:38:55.582Z,1001.629272
2022-08-01T01:39:54.103Z,1001.647827
2022-08-01T01:41:50.775Z,1001.653381
2022-08-01T01:42:52.935Z,1001.715149
2022-08-01T01:43:47.609Z,1001.749817
2022-08-01T01:44:49.493Z,1001.760498
2022-08-01T01:45:44.534Z,1001.749817
2022-08-01T01:46:44.383Z,1001.736389
2022-08-01T01:48:21.656Z,1001.686401
2022-08-01T01:50:43.252Z,1001.660339
2022-08-01T01:51:29.188Z,1001.657837
2022-08-01T01:52:25.499Z,1001.63623
2022-08-01T01:53:27.345Z,1001.689514
2022-08-01T01:54:22.690Z,1001.665283
2022-08-01T01:55:28.512Z,1001.798462
2022-08-01T01:56:24.757Z,1001.728455
2022-08-01T01:57:23.694Z,1001.765625
2022-08-01T01:58:19.955Z,1001.722351
2022-08-01T01:59:18.848Z,1001.729919
2022-08-01T01:59:25.620Z,1001.729919
2022-08-01T02:00:18.970Z,1001.735107
2022-08-01T02:01:14.853Z,1001.722046
2022-08-01T02:02:11.963Z,1001.727173
2022-08-01T02:03:05.055Z,1001.694946
2022-08-01T02:04:03.440Z,1001.673279
2022-08-01T02:04:56.819Z,1001.748108
2022-08-01T02:06:51.464Z,1001.734741
2022-08-01T02:07:53.458Z,1001.657166
2022-08-01T02:07:59.753Z,1001.657166
2022-08-01T02:08:51.462Z,1001.702515
2022-08-01T02:09:46.001Z,1001.753601
2022-08-01T02:11:59.116Z,1001.587524
2022-08-01T02:12:07.248Z,1001.587524
2022-08-01T02:12:09.371Z,1001.587524
2022-08-01T02:12:45.220Z,1001.640991
2022-08-01T02:13:43.249Z,1001.734741
2022-08-01T02:14:39.413Z,1001.673279
2022-08-01T02:15:37.679Z,1001.638306
2022-08-01T02:16:31.185Z,1001.640991
2022-08-01T02:17:29.919Z,1001.630005
2022-08-01T02:18:27.941Z,1001.616333
2022-08-01T02:19:29.464Z,1001.701782
2022-08-01T02:20:20.897Z,1001.728577
2022-08-01T02:21:21.792Z,1001.64032
2022-08-01T02:22:15.662Z,1001.66156
2022-08-01T02:23:15.487Z,1001.629272
2022-08-01T02:24:16.323Z,1001.621094
2022-08-01T02:25:07.515Z,1001.658447
2022-08-01T02:26:10.646Z,1001.631714
2022-08-01T02:27:10.515Z,1001.658447
2022-08-01T02:28:09.807Z,1001.650635
2022-08-01T02:29:10.258Z,1001.602173
2022-08-01T02:30:11.597Z,1001.586121
2022-08-01T02:32:47.756Z,1001.618774
2022-08-01T02:33:33.107Z,1001.624512
2022-08-01T02:34:33.628Z,1001.576477
2022-08-01T02:35:33.113Z,1001.557678
2022-08-01T02:36:34.271Z,1001.597839
2022-08-01T02:37:37.759Z,1001.664368
2022-08-01T02:37:45.231Z,1001.664368
2022-08-01T02:38:37.590Z,1001.62146
2022-08-01T02:39:38.990Z,1001.578918
2022-08-01T02:40:36.183Z,1001.597839
2022-08-01T02:41:33.837Z,1001.573425
2022-08-01T02:42:30.979Z,1001.567993
2022-08-01T02:43:29.608Z,1001.530151
2022-08-01T02:44:27.616Z,1001.540771
2022-08-01T02:45:25.827Z,1001.580933
2022-08-01T02:47:29.605Z,1001.537964
2022-08-01T02:48:27.151Z,1001.503052
2022-08-01T02:49:26.685Z,1001.516724
2022-08-01T02:50:26.551Z,1001.532837
2022-08-01T02:51:27.134Z,1001.540771
2022-08-01T02:52:24.189Z,1001.506104
2022-08-01T02:53:21.700Z,1001.473816
2022-08-01T02:54:22.731Z,1001.513672
2022-08-01T02:55:20.604Z,1001.569946
2022-08-01T02:57:18.021Z,1001.475952
2022-08-01T02:58:15.108Z,1001.521484
2022-08-01T02:59:13.722Z,1001.451904
2022-08-01T03:00:10.654Z,1001.441223
2022-08-01T03:02:10.223Z,1001.457336
2022-08-01T03:03:11.693Z,1001.441223
2022-08-01T03:04:15.604Z,1001.569519
2022-08-01T03:05:16.747Z,1001.52655
2022-08-01T03:06:17.508Z,1001.464844
2022-08-01T03:07:16.102Z,1001.558411
2022-08-01T03:08:14.703Z,1001.585205
2022-08-01T03:09:11.612Z,1001.488831
2022-08-01T03:10:08.290Z,1001.555786
2022-08-01T03:11:09.504Z,1001.510498
2022-08-01T03:12:05.957Z,1001.547791
2022-08-01T03:13:10.117Z,1001.585205
2022-08-01T03:14:02.745Z,1001.550293
2022-08-01T03:15:05.096Z,1001.515625
2022-08-01T03:17:05.451Z,1001.550293
2022-08-01T03:18:08.097Z,1001.563599
2022-08-01T03:19:00.192Z,1001.592834
2022-08-01T03:20:00.628Z,1001.571533
2022-08-01T03:21:53.416Z,1001.590332
2022-08-01T03:22:52.985Z,1001.617126
2022-08-01T03:23:52.251Z,1001.638367
2022-08-01T03:23:55.281Z,1001.638367
2022-08-01T03:24:50.886Z,1001.670654
2022-08-01T03:25:45.410Z,1001.646729
2022-08-01T03:26:49.650Z,1001.673462
2022-08-01T03:27:54.207Z,1001.542358
2022-08-01T03:28:52.405Z,1001.625
2022-08-01T03:29:55.922Z,1001.651794
2022-08-01T03:31:52.797Z,1001.729675
2022-08-01T03:32:45.297Z,1001.750916
2022-08-01T03:33:41.847Z,1001.651794
2022-08-01T03:34:48.879Z,1001.777649
2022-08-01T03:36:12.802Z,1001.705322
2022-08-01T03:36:53.575Z,1001.686707
2022-08-01T03:38:14.723Z,1001.788757
2022-08-01T03:38:16.288Z,1001.788757
2022-08-01T03:38:17.219Z,1001.788757
2022-08-01T03:38:52.769Z,1001.703308
2022-08-01T03:39:57.217Z,1001.676941
2022-08-01T03:41:56.227Z,1001.730469
2022-08-01T03:41:57.055Z,1001.730469
2022-08-01T03:42:52.727Z,1001.767822
2022-08-01T03:43:51.112Z,1001.687683
2022-08-01T03:44:53.732Z,1001.703735
2022-08-01T03:46:50.945Z,1001.708801
2022-08-01T03:47:48.039Z,1001.721863
2022-08-01T03:48:50.468Z,1001.724548
2022-08-01T03:49:47.140Z,1001.735168
2022-08-01T03:51:42.449Z,1001.826111
2022-08-01T03:52:48.895Z,1001.828491
2022-08-01T03:53:44.440Z,1001.801697
2022-08-01T03:54:47.349Z,1001.75885
2022-08-01T03:55:41.505Z,1001.719055
2022-08-01T03:56:44.900Z,1001.826111
2022-08-01T03:57:38.248Z,1001.834045
2022-08-01T03:58:38.265Z,1001.799377
2022-08-01T03:59:37.928Z,1001.753723
2022-08-01T04:00:39.205Z,1001.719055
2022-08-01T04:01:41.001Z,1001.772583
2022-08-01T04:02:37.910Z,1001.767029
2022-08-01T04:03:41.861Z,1001.721436
2022-08-01T04:04:39.025Z,1001.702942
2022-08-01T04:05:39.292Z,1001.654907
2022-08-01T04:06:39.590Z,1001.638733
2022-08-01T04:07:33.953Z,1001.665527
2022-08-01T04:08:33.092Z,1001.727051
2022-08-01T04:09:31.141Z,1001.665527
2022-08-01T04:10:32.410Z,1001.665527
2022-08-01T04:11:27.922Z,1001.692261
2022-08-01T04:12:30.490Z,1001.684082
2022-08-01T04:13:26.712Z,1001.702942
2022-08-01T04:13:37.103Z,1001.702942
2022-08-01T04:13:38.311Z,1001.702942
2022-08-01T04:14:30.134Z,1001.689514
2022-08-01T04:15:25.516Z,1001.682007
2022-08-01T04:17:22.018Z,1001.767822
2022-08-01T04:18:26.210Z,1001.73291
2022-08-01T04:19:25.259Z,1001.746277
2022-08-01T04:20:25.209Z,1001.756897
2022-08-01T04:22:29.666Z,1001.839539
2022-08-01T04:23:30.373Z,1001.780457
2022-08-01T04:24:26.834Z,1001.727051
2022-08-01T04:25:26.043Z,1001.729675
2022-08-01T04:26:31.152Z,1001.799377
2022-08-01T04:27:50.052Z,1001.793823
2022-08-01T04:27:51.015Z,1001.793823
2022-08-01T04:27:51.047Z,1001.793823
2022-08-01T04:29:22.932Z,1001.784058
2022-08-01T04:30:24.645Z,1001.717529
2022-08-01T04:32:23.051Z,1001.803345
2022-08-01T04:33:19.409Z,1001.779236
2022-08-01T04:34:24.692Z,1001.845886
2022-08-01T04:36:07.709Z,1001.741882
2022-08-01T04:36:51.117Z,1001.849365
2022-08-01T04:37:51.220Z,1001.972473
2022-08-01T04:38:49.116Z,1001.886719
2022-08-01T04:39:50.379Z,1001.961548
2022-08-01T04:40:43.378Z,1001.910461
2022-08-01T04:41:42.949Z,1002.020142
2022-08-01T04:42:42.033Z,1002.049377
2022-08-01T04:43:44.426Z,1002.070618
2022-08-01T04:44:38.824Z,1002.081238
2022-08-01T04:45:37.620Z,1002.083923
2022-08-01T04:47:33.633Z,1002.051636
2022-08-01T04:48:30.625Z,1002.064697
2022-08-01T04:49:29.472Z,1002.120911
2022-08-01T04:50:32.573Z,1002.048584
2022-08-01T04:51:26.349Z,1002.054077
2022-08-01T04:52:30.428Z,1002.064697
2022-08-01T04:53:22.690Z,1002.161072
2022-08-01T04:54:22.158Z,1002.153198
2022-08-01T04:55:21.071Z,1002.14502
2022-08-01T04:56:19.220Z,1002.126404
2022-08-01T04:57:19.082Z,1002.067322
2022-08-01T04:58:17.942Z,1002.107178
2022-08-01T04:59:19.821Z,1002.077942
2022-08-01T05:00:14.494Z,1002.075317
2022-08-01T05:02:11.004Z,1002.09967
2022-08-01T05:03:12.017Z,1002.067322
2022-08-01T05:04:06.222Z,1002.085938
2022-08-01T05:05:09.341Z,1002.104675
2022-08-01T05:07:06.150Z,1002.013855
2022-08-01T05:07:58.771Z,1002.115417
2022-08-01T05:08:57.730Z,1002.035095
2022-08-01T05:09:53.546Z,1002.06189
2022-08-01T05:10:53.332Z,1002.085938
2022-08-01T05:11:52.445Z,1002.06189
2022-08-01T05:12:50.225Z,1002.104675
2022-08-01T05:13:54.760Z,1002.110291
2022-08-01T05:14:48.562Z,1002.134399
2022-08-01T05:16:46.621Z,1002.196106
2022-08-01T05:18:31.189Z,1002.142944
2022-08-01T05:19:10.883Z,1002.151306
2022-08-01T05:20:08.879Z,1002.207947
2022-08-01T05:22:03.664Z,1002.16748
2022-08-01T05:23:01.788Z,1002.172607
2022-08-01T05:23:58.938Z,1002.185913
2022-08-01T05:25:00.540Z,1002.27124
2022-08-01T05:26:02.041Z,1002.225708
2022-08-01T05:27:00.900Z,1002.239014
2022-08-01T05:27:56.103Z,1002.303101
2022-08-01T05:28:58.646Z,1002.252014
2022-08-01T05:29:57.570Z,1002.297668
2022-08-01T05:30:58.734Z,1002.305542
2022-08-01T05:32:00.541Z,1002.351074
2022-08-01T05:32:59.279Z,1002.345642
2022-08-01T05:34:02.276Z,1002.455017
2022-08-01T05:35:01.487Z,1002.377502
2022-08-01T05:37:00.632Z,1002.379822
2022-08-01T05:37:58.651Z,1002.331421
2022-08-01T05:38:54.961Z,1002.419861
2022-08-01T05:39:54.183Z,1002.403748
2022-08-01T05:41:52.059Z,1002.430481
2022-08-01T05:42:45.324Z,1002.500183
2022-08-01T05:43:45.428Z,1002.56427
2022-08-01T05:44:49.148Z,1002.457275
2022-08-01T05:46:47.283Z,1002.495178
2022-08-01T05:47:42.964Z,1002.521851
2022-08-01T05:48:40.237Z,1002.457764
2022-08-01T05:49:36.551Z,1002.449524
2022-08-01T05:50:34.789Z,1002.449524
2022-08-01T05:52:40.785Z,1002.519714
2022-08-01T05:53:02.335Z,1002.523254
2022-08-01T05:54:02.085Z,1002.507996
2022-08-01T05:55:05.141Z,1002.510803
2022-08-01T05:56:03.482Z,1002.502869
2022-08-01T05:57:06.239Z,1002.518616
2022-08-01T05:58:03.930Z,1002.550476
2022-08-01T05:59:03.322Z,1002.528748
2022-08-01T06:00:01.316Z,1002.523254
2022-08-01T06:01:01.366Z,1002.498901
2022-08-01T06:01:56.827Z,1002.485474
2022-08-01T06:02:54.520Z,1002.557495
2022-08-01T06:03:59.162Z,1002.453125
2022-08-01T06:04:52.233Z,1002.509033
2022-08-01T06:06:48.868Z,1002.506653
2022-08-01T06:07:48.511Z,1002.453125
2022-08-01T06:08:44.038Z,1002.570801
2022-08-01T06:09:44.070Z,1002.535767
2022-08-01T06:10:38.725Z,1002.535767
2022-08-01T06:11:42.599Z,1002.554688
2022-08-01T06:12:38.832Z,1002.519714
2022-08-01T06:13:48.274Z,1002.557007
2022-08-01T06:13:48.640Z,1002.557007
2022-08-01T06:13:48.878Z,1002.557007
2022-08-01T06:14:36.064Z,1002.527893
2022-08-01T06:15:34.664Z,1002.619202
2022-08-01T06:17:36.584Z,1002.512207
2022-08-01T06:18:35.924Z,1002.533447
2022-08-01T06:19:37.256Z,1002.554688
2022-08-01T06:20:36.602Z,1002.565308
2022-08-01T06:21:31.173Z,1002.592041
2022-08-01T06:22:33.783Z,1002.514038
2022-08-01T06:23:32.801Z,1002.540833
2022-08-01T06:23:33.007Z,1002.540833
2022-08-01T06:24:29.503Z,1002.57312
2022-08-01T06:25:22.014Z,1002.642883
2022-08-01T06:26:23.990Z,1002.589844
2022-08-01T06:27:21.714Z,1002.573608
2022-08-01T06:27:22.536Z,1002.573608
2022-08-01T06:28:16.756Z,1002.624817
2022-08-01T06:29:11.399Z,1002.657104
2022-08-01T06:30:09.433Z,1002.638306
2022-08-01T06:31:11.841Z,1002.582336
2022-08-01T06:32:04.588Z,1002.638306
2022-08-01T06:33:05.269Z,1002.512634
2022-08-01T06:33:59.807Z,1002.557983
2022-08-01T06:34:59.864Z,1002.611511
2022-08-01T06:36:57.771Z,1002.579224
2022-08-01T06:37:50.014Z,1002.509521
2022-08-01T06:38:50.331Z,1002.614197
2022-08-01T06:39:51.265Z,1002.589844
2022-08-01T06:41:42.661Z,1002.539856
2022-08-01T06:42:24.724Z,1002.596252
2022-08-01T06:43:23.950Z,1002.556396
2022-08-01T06:44:23.059Z,1002.575012
2022-08-01T06:45:24.140Z,1002.580078
2022-08-01T06:47:28.663Z,1002.54541
2022-08-01T06:48:22.824Z,1002.529236
2022-08-01T06:49:23.202Z,1002.547791
2022-08-01T06:50:25.400Z,1002.601257
2022-08-01T06:51:19.776Z,1002.555908
2022-08-01T06:52:21.607Z,1002.572205
2022-08-01T06:53:19.674Z,1002.529236
2022-08-01T06:54:23.528Z,1002.582825
2022-08-01T06:55:22.418Z,1002.582825
2022-08-01T06:57:20.252Z,1002.647339
2022-08-01T06:58:20.235Z,1002.558838
2022-08-01T06:58:30.861Z,1002.558838
2022-08-01T06:58:30.872Z,1002.558838
2022-08-01T06:59:22.718Z,1002.583191
2022-08-01T07:00:19.889Z,1002.602173
2022-08-01T07:01:20.815Z,1002.605286
2022-08-01T07:02:18.094Z,1002.567871
2022-08-01T07:03:19.717Z,1002.565186
2022-08-01T07:04:16.219Z,1002.554504
2022-08-01T07:05:20.262Z,1002.589539
2022-08-01T07:07:16.920Z,1002.55249
2022-08-01T07:08:13.649Z,1002.432007
2022-08-01T07:09:15.871Z,1002.472595
2022-08-01T07:10:12.871Z,1002.448608
2022-08-01T07:12:12.553Z,1002.459534
2022-08-01T07:13:15.344Z,1002.459839
2022-08-01T07:14:12.590Z,1002.449829
2022-08-01T07:15:14.454Z,1002.471497
2022-08-01T07:17:12.645Z,1002.461182
2022-08-01T07:18:13.007Z,1002.442566
2022-08-01T07:19:11.356Z,1002.466614
2022-08-01T07:20:16.181Z,1002.426697
2022-08-01T07:21:38.261Z,1002.475159
2022-08-01T07:21:39.376Z,1002.475159
2022-08-01T07:21:39.877Z,1002.475159
2022-08-01T07:22:13.064Z,1002.424561
2022-08-01T07:22:23.541Z,1002.424561
2022-08-01T07:23:13.424Z,1002.486877
2022-08-01T07:24:13.904Z,1002.409363
2022-08-01T07:25:13.371Z,1002.535461
2022-08-01T07:26:10.811Z,1002.444397
2022-08-01T07:27:25.388Z,1002.476563
2022-08-01T07:27:25.617Z,1002.476563
2022-08-01T07:27:26.121Z,1002.476563
2022-08-01T07:29:24.783Z,1002.426147
2022-08-01T07:29:45.217Z,1002.426331
2022-08-01T07:30:46.525Z,1002.472107
2022-08-01T07:31:43.796Z,1002.397034
2022-08-01T07:32:44.739Z,1002.472107
2022-08-01T07:33:48.472Z,1002.472107
2022-08-01T07:33:48.873Z,1002.472107
2022-08-01T07:34:40.968Z,1002.474854
2022-08-01T07:35:36.753Z,1002.45874
2022-08-01T07:36:37.001Z,1002.469543
2022-08-01T07:37:45.555Z,1002.482666
2022-08-01T07:37:47.899Z,1002.482666
2022-08-01T07:37:48.992Z,1002.482666
2022-08-01T07:38:34.658Z,1002.482666
2022-08-01T07:39:33.028Z,1002.520325
2022-08-01T07:40:31.394Z,1002.507202
2022-08-01T07:41:45.556Z,1002.501892
2022-08-01T07:41:52.990Z,1002.501892
2022-08-01T07:42:05.371Z,1002.501892
2022-08-01T07:42:28.971Z,1002.563904
2022-08-01T07:43:25.238Z,1002.497192
2022-08-01T07:44:29.255Z,1002.507996
2022-08-01T07:45:22.039Z,1002.550964
2022-08-01T07:47:19.218Z,1002.56427
2022-08-01T07:48:20.315Z,1002.50531
2022-08-01T07:49:16.792Z,1002.56189
2022-08-01T07:50:15.547Z,1002.521545
2022-08-01T07:51:16.360Z,1002.602051
2022-08-01T07:52:12.596Z,1002.572754
2022-08-01T07:53:16.237Z,1002.55127
2022-08-01T07:54:09.703Z,1002.564514
2022-08-01T07:55:10.652Z,1002.473389
2022-08-01T07:57:07.467Z,1002.521729
2022-08-01T07:58:03.601Z,1002.532471
2022-08-01T07:59:06.570Z,1002.578186
2022-08-01T08:00:00.278Z,1002.567505
2022-08-01T08:01:57.779Z,1002.578308
2022-08-01T08:02:58.518Z,1002.615967
2022-08-01T08:03:54.809Z,1002.567627
2022-08-01T08:04:58.234Z,1002.597046
2022-08-01T08:05:59.639Z,1002.551575
2022-08-01T08:05:59.809Z,1002.551575
2022-08-01T08:07:49.558Z,1002.521851
2022-08-01T08:08:53.251Z,1002.559509
2022-08-01T08:09:50.960Z,1002.570313
2022-08-01T08:10:51.271Z,1002.591736
2022-08-01T08:11:47.762Z,1002.57843
2022-08-01T08:12:45.804Z,1002.583923
2022-08-01T08:13:42.221Z,1002.551636
2022-08-01T08:14:46.245Z,1002.626892
2022-08-01T08:15:40.061Z,1002.623962
2022-08-01T08:17:38.196Z,1002.570557
2022-08-01T08:19:17.247Z,1002.618896
2022-08-01T08:20:12.549Z,1002.629517
2022-08-01T08:21:12.562Z,1002.661804
2022-08-01T08:22:52.522Z,1002.672485
2022-08-01T08:25:31.697Z,1002.623962
2022-08-01T08:25:52.031Z,1002.691223
2022-08-01T08:27:48.742Z,1002.672363
2022-08-01T08:28:49.056Z,1002.653748
2022-08-01T08:29:44.806Z,1002.659058
2022-08-01T08:30:47.330Z,1002.629517
2022-08-01T08:31:51.962Z,1002.734375
2022-08-01T08:31:52.021Z,1002.734375
2022-08-01T08:32:41.318Z,1002.677795
2022-08-01T08:33:37.016Z,1002.71283
2022-08-01T08:34:37.629Z,1002.715332
2022-08-01T08:35:40.354Z,1002.664368
2022-08-01T08:35:40.495Z,1002.664368
2022-08-01T08:35:54.159Z,1002.664368
2022-08-01T08:36:31.804Z,1002.650757
2022-08-01T08:37:31.985Z,1002.67218
2022-08-01T08:37:37.880Z,1002.67218
2022-08-01T08:38:28.475Z,1002.699036
2022-08-01T08:39:27.418Z,1002.707336
2022-08-01T08:40:22.232Z,1002.766479
2022-08-01T08:42:16.772Z,1002.825806
2022-08-01T08:43:15.966Z,1002.801514
2022-08-01T08:44:17.271Z,1002.796143
2022-08-01T08:45:11.832Z,1002.799072
2022-08-01T08:47:04.006Z,1002.85498
2022-08-01T08:48:05.366Z,1002.814819
2022-08-01T08:48:57.876Z,1002.922241
2022-08-01T08:50:00.542Z,1002.865723
2022-08-01T08:50:53.182Z,1002.817322
2022-08-01T08:52:48.396Z,1002.879272
2022-08-01T08:53:47.539Z,1002.959839
2022-08-01T08:54:42.913Z,1002.914063
2022-08-01T08:55:55.380Z,1002.892578
2022-08-01T08:55:55.608Z,1002.892578
2022-08-01T08:55:56.473Z,1002.892578
2022-08-01T08:56:41.148Z,1002.873901
2022-08-01T08:57:36.393Z,1002.914063
2022-08-01T08:58:34.662Z,1002.924866
2022-08-01T08:59:33.486Z,1002.895386
2022-08-01T09:00:30.054Z,1002.927673
2022-08-01T09:01:27.552Z,1002.935486
2022-08-01T09:02:28.282Z,1002.911377
2022-08-01T09:03:22.443Z,1002.978271
2022-08-01T09:04:19.992Z,1002.873779
2022-08-01T09:05:21.736Z,1002.908447
2022-08-01T09:06:13.752Z,1002.935242
2022-08-01T09:07:15.394Z,1002.868286
2022-08-01T09:08:07.861Z,1002.870789
2022-08-01T09:09:07.631Z,1002.975647
2022-08-01T09:10:03.068Z,1002.897644
2022-08-01T09:11:57.087Z,1002.972961
2022-08-01T09:11:57.230Z,1002.972961
2022-08-01T09:11:58.229Z,1002.972961
2022-08-01T09:12:27.929Z,1003.013428
2022-08-01T09:13:26.952Z,1002.978516
2022-08-01T09:14:23.435Z,1002.919434
2022-08-01T09:15:23.498Z,1002.935547
2022-08-01T09:16:19.780Z,1002.852417
2022-08-01T09:17:22.655Z,1002.890015
2022-08-01T09:18:15.609Z,1002.876404
2022-08-01T09:19:38.804Z,1002.951721
2022-08-01T09:19:39.500Z,1002.951721
2022-08-01T09:19:40.603Z,1002.951721
2022-08-01T09:20:14.615Z,1002.962708
2022-08-01T09:22:10.744Z,1002.944092
2022-08-01T09:23:05.928Z,1003.027161
2022-08-01T09:24:05.727Z,1003.056885
2022-08-01T09:25:00.872Z,1003.024658
2022-08-01T09:26:00.296Z,1003.048645
2022-08-01T09:27:55.086Z,1003.0354
2022-08-01T09:28:50.213Z,1003.054077
2022-08-01T09:30:00.413Z,1003.072998
2022-08-01T09:30:01.954Z,1003.072998
2022-08-01T09:30:50.490Z,1003.067627
2022-08-01T09:31:47.609Z,1003.067627
2022-08-01T09:32:48.938Z,1003.040771
2022-08-01T09:33:42.137Z,1003.056885
2022-08-01T09:34:39.770Z,1003.089111
2022-08-01T09:35:43.140Z,1003.032593
2022-08-01T09:37:37.324Z,1003.102417
2022-08-01T09:38:36.170Z,1003.107788
2022-08-01T09:39:28.689Z,1003.099854
2022-08-01T09:40:07.578Z,1003.094543
2022-08-01T09:41:02.633Z,1003.113098
2022-08-01T09:43:01.400Z,1003.142822
2022-08-01T09:43:56.281Z,1003.105225
2022-08-01T09:45:23.268Z,1003.156067
2022-08-01T09:46:00.973Z,1003.118408
2022-08-01T09:47:59.770Z,1003.105103
2022-08-01T09:48:56.056Z,1003.123779
2022-08-01T09:49:57.317Z,1003.158936
2022-08-01T09:50:53.510Z,1003.18573
2022-08-01T09:51:59.932Z,1003.180298
2022-08-01T09:52:00.860Z,1003.180298
2022-08-01T09:52:52.656Z,1003.107483
2022-08-01T09:53:52.178Z,1003.174866
2022-08-01T09:54:49.630Z,1003.185486
2022-08-01T09:55:45.848Z,1003.220337
2022-08-01T09:56:43.953Z,1003.137085
2022-08-01T09:57:44.789Z,1003.161072
2022-08-01T09:58:40.950Z,1003.169312
2022-08-01T09:59:57.267Z,1003.115601
2022-08-01T09:59:57.968Z,1003.115601
2022-08-01T09:59:58.731Z,1003.115601
2022-08-01T10:00:45.674Z,1003.144897
2022-08-01T10:00:46.005Z,1003.144897
2022-08-01T10:02:34.869Z,1003.233643
2022-08-01T10:03:35.326Z,1003.182495
2022-08-01T10:04:30.791Z,1003.150208
2022-08-01T10:05:36.841Z,1003.171814
2022-08-01T10:07:43.256Z,1003.128906
2022-08-01T10:07:44.105Z,1003.128906
2022-08-01T10:07:44.970Z,1003.128906
2022-08-01T10:08:27.240Z,1003.174744
2022-08-01T10:09:22.824Z,1003.161072
2022-08-01T10:10:23.469Z,1003.158569
2022-08-01T10:10:29.032Z,1003.158569
2022-08-01T10:12:17.614Z,1003.190918
2022-08-01T10:13:20.611Z,1003.137085
2022-08-01T10:14:14.261Z,1003.104858
2022-08-01T10:15:14.621Z,1003.085938
2022-08-01T10:17:10.657Z,1003.139709
2022-08-01T10:17:18.156Z,1003.139709
2022-08-01T10:18:06.755Z,1003.123596
2022-08-01T10:18:16.830Z,1003.123596
2022-08-01T10:18:26.495Z,1003.123596
2022-08-01T10:19:14.492Z,1003.193359
2022-08-01T10:19:15.562Z,1003.193359
2022-08-01T10:20:13.030Z,1003.150208
2022-08-01T10:20:29.024Z,1003.150208
2022-08-01T10:20:32.762Z,1003.150208
2022-08-01T10:21:10.979Z,1003.225464
2022-08-01T10:23:00.333Z,1003.139404
2022-08-01T10:24:03.118Z,1003.171692
2022-08-01T10:24:56.029Z,1003.174683
2022-08-01T10:25:56.020Z,1003.177368
2022-08-01T10:27:55.156Z,1003.207214
2022-08-01T10:28:49.585Z,1003.207275
2022-08-01T10:29:59.130Z,1003.260986
2022-08-01T10:30:04.545Z,1003.260986
2022-08-01T10:30:08.518Z,1003.260986
2022-08-01T10:30:47.154Z,1003.199036
2022-08-01T10:32:43.889Z,1003.22876
2022-08-01T10:32:50.708Z,1003.22876
2022-08-01T10:33:50.875Z,1003.217957
2022-08-01T10:33:51.898Z,1003.217957
2022-08-01T10:34:45.049Z,1003.220459
2022-08-01T10:35:47.651Z,1003.247314
2022-08-01T10:35:47.943Z,1003.247314
2022-08-01T10:37:35.181Z,1003.193542
2022-08-01T10:38:35.274Z,1003.252686
2022-08-01T10:39:31.010Z,1003.198914
2022-08-01T10:40:31.911Z,1003.201721
2022-08-01T10:43:04.974Z,1003.236267
2022-08-01T10:45:02.905Z,1003.168701
2022-08-01T10:45:22.835Z,1003.17627
2022-08-01T10:46:20.068Z,1003.157349